createdAt,value
2022-09-27T00:00:30.291Z,1.60
2022-09-27T00:01:30.388Z,1.20
2022-09-27T00:02:30.344Z,1.40
2022-09-27T00:03:30.301Z,1.80
2022-09-27T00:04:30.313Z,1.90
2022-09-27T00:05:30.237Z,1.50
2022-09-27T00:06:30.330Z,1.40
2022-09-27T00:07:30.248Z,1.60
2022-09-27T00:08:30.204Z,1.40
2022-09-27T00:09:30.193Z,1.50
2022-09-27T00:10:30.219Z,1.30
2022-09-27T00:11:32.122Z,1.20
2022-09-27T00:12:30.169Z,1.40
2022-09-27T00:13:30.232Z,1.30
2022-09-27T00:14:30.133Z,1.70
2022-09-27T00:15:30.124Z,1.90
2022-09-27T00:16:30.239Z,1.90
2022-09-27T00:17:30.153Z,1.60
2022-09-27T00:18:30.133Z,1.90
2022-09-27T00:19:30.069Z,2.00
2022-09-27T00:20:30.064Z,1.80
2022-09-27T00:21:30.065Z,1.80
2022-09-27T00:22:30.304Z,1.50
2022-09-27T00:23:30.397Z,1.40
2022-09-27T00:24:30.351Z,1.40
2022-09-27T00:25:30.392Z,1.40
2022-09-27T00:26:30.064Z,1.80
2022-09-27T00:27:30.101Z,1.60
2022-09-27T00:28:30.026Z,1.20
2022-09-27T00:29:29.965Z,1.60
2022-09-27T00:30:30.056Z,1.70
2022-09-27T00:31:30.163Z,1.80
2022-09-27T00:32:31.275Z,2.00
2022-09-27T00:33:29.980Z,1.60
2022-09-27T00:34:30.004Z,1.80
2022-09-27T00:35:29.929Z,2.00
2022-09-27T00:36:30.182Z,1.80
2022-09-27T00:37:30.128Z,1.60
2022-09-27T00:38:30.190Z,1.30
2022-09-27T00:39:30.071Z,1.40
2022-09-27T00:40:30.583Z,1.00
2022-09-27T00:41:30.387Z,1.40
2022-09-27T00:42:30.055Z,1.30
2022-09-27T00:43:30.234Z,1.80
2022-09-27T00:44:30.216Z,1.60
2022-09-27T00:45:29.986Z,1.50
2022-09-27T00:46:30.200Z,1.60
2022-09-27T00:47:29.987Z,1.80
2022-09-27T00:48:29.772Z,1.70
2022-09-27T00:49:30.033Z,1.70
2022-09-27T00:50:29.777Z,2.00
2022-09-27T00:51:29.954Z,1.40
2022-09-27T00:52:30.028Z,1.40
2022-09-27T00:53:29.920Z,1.50
2022-09-27T00:54:29.870Z,1.80
2022-09-27T00:55:29.953Z,1.60
2022-09-27T00:56:30.068Z,1.80
2022-09-27T00:57:29.996Z,1.60
2022-09-27T00:58:31.205Z,1.60
2022-09-27T00:59:30.866Z,1.80
2022-09-27T01:00:30.066Z,1.60
2022-09-27T01:01:29.860Z,1.60
2022-09-27T01:02:29.960Z,1.50
2022-09-27T01:03:29.944Z,2.00
2022-09-27T01:04:29.866Z,1.80
2022-09-27T01:05:29.827Z,2.20
2022-09-27T01:06:29.815Z,1.70
2022-09-27T01:07:29.791Z,1.80
2022-09-27T01:08:29.762Z,1.80
2022-09-27T01:09:30.695Z,1.60
2022-09-27T01:10:30.271Z,1.90
2022-09-27T01:11:29.523Z,1.80
2022-09-27T01:12:29.687Z,1.80
2022-09-27T01:13:29.723Z,1.60
2022-09-27T01:14:29.755Z,1.40
2022-09-27T01:15:29.609Z,1.30
2022-09-27T01:16:29.716Z,1.70
2022-09-27T01:17:29.689Z,1.50
2022-09-27T01:18:29.583Z,1.60
2022-09-27T01:19:29.698Z,1.70
2022-09-27T01:20:29.737Z,1.60
2022-09-27T01:21:29.789Z,1.30
2022-09-27T01:22:29.830Z,1.40
2022-09-27T01:23:29.649Z,1.10
2022-09-27T01:24:29.874Z,1.40
2022-09-27T01:25:29.789Z,1.30
2022-09-27T01:26:29.567Z,1.10
2022-09-27T01:27:29.702Z,1.30
2022-09-27T01:28:29.471Z,1.40
2022-09-27T01:29:29.524Z,1.30
2022-09-27T01:30:29.367Z,1.60
2022-09-27T01:31:29.385Z,1.80
2022-09-27T01:32:29.575Z,1.70
2022-09-27T01:33:29.624Z,1.30
2022-09-27T01:34:30.069Z,2.20
2022-09-27T01:35:29.456Z,1.70
2022-09-27T01:36:29.311Z,1.40
2022-09-27T01:37:29.951Z,1.80
2022-09-27T01:38:29.263Z,1.60
2022-09-27T01:39:29.432Z,1.70
2022-09-27T01:40:29.466Z,1.50
2022-09-27T01:41:29.448Z,1.60
2022-09-27T01:42:29.276Z,2.00
2022-09-27T01:43:29.154Z,1.60
2022-09-27T01:44:29.133Z,1.70
2022-09-27T01:45:29.193Z,1.70
2022-09-27T01:46:30.790Z,1.30
2022-09-27T01:47:29.099Z,1.40
2022-09-27T01:48:29.126Z,1.20
2022-09-27T01:49:29.344Z,1.40
2022-09-27T01:50:29.073Z,1.10
2022-09-27T01:51:29.134Z,1.40
2022-09-27T01:52:29.659Z,1.20
2022-09-27T01:53:29.288Z,1.30
2022-09-27T01:54:29.027Z,1.80
2022-09-27T01:55:29.016Z,1.60
2022-09-27T01:56:28.985Z,1.40
2022-09-27T01:57:29.201Z,1.40
2022-09-27T01:58:30.144Z,1.60
2022-09-27T01:59:30.624Z,1.60
2022-09-27T02:00:29.234Z,1.50
2022-09-27T02:01:29.102Z,1.50
2022-09-27T02:02:28.970Z,1.30
2022-09-27T02:03:28.968Z,1.40
2022-09-27T02:04:28.957Z,1.40
2022-09-27T02:05:28.915Z,1.30
2022-09-27T02:06:28.909Z,1.50
2022-09-27T02:07:28.866Z,1.60
2022-09-27T02:08:28.878Z,1.20
2022-09-27T02:09:28.917Z,1.50
2022-09-27T02:10:28.836Z,1.40
2022-09-27T02:11:28.946Z,1.50
2022-09-27T02:12:28.819Z,1.40
2022-09-27T02:13:28.805Z,1.20
2022-09-27T02:14:28.799Z,1.10
2022-09-27T02:15:29.264Z,1.70
2022-09-27T02:16:28.809Z,1.20
2022-09-27T02:17:29.021Z,1.20
2022-09-27T02:18:29.054Z,1.30
2022-09-27T02:19:29.136Z,1.40
2022-09-27T02:20:28.917Z,1.70
2022-09-27T02:21:28.949Z,1.30
2022-09-27T02:22:28.724Z,1.90
2022-09-27T02:23:30.664Z,1.20
2022-09-27T02:24:28.739Z,1.20
2022-09-27T02:25:28.704Z,1.50
2022-09-27T02:26:28.652Z,1.70
2022-09-27T02:27:28.681Z,1.60
2022-09-27T02:28:28.785Z,2.00
2022-09-27T02:29:28.706Z,2.20
2022-09-27T02:30:28.794Z,1.70
2022-09-27T02:31:28.784Z,1.30
2022-09-27T02:32:28.694Z,1.50
2022-09-27T02:33:28.646Z,1.90
2022-09-27T02:34:28.603Z,1.40
2022-09-27T02:35:28.776Z,1.40
2022-09-27T02:36:28.588Z,1.30
2022-09-27T02:37:28.663Z,1.40
2022-09-27T02:38:28.639Z,1.30
2022-09-27T02:39:28.569Z,1.30
2022-09-27T02:40:28.760Z,1.30
2022-09-27T02:41:28.601Z,1.30
2022-09-27T02:42:28.665Z,1.10
2022-09-27T02:43:28.952Z,1.50
2022-09-27T02:44:28.485Z,1.20
2022-09-27T02:45:28.567Z,1.20
2022-09-27T02:46:29.226Z,1.60
2022-09-27T02:47:28.594Z,1.20
2022-09-27T02:48:28.616Z,1.70
2022-09-27T02:49:28.790Z,1.60
2022-09-27T02:50:28.493Z,1.20
2022-09-27T02:51:28.526Z,1.30
2022-09-27T02:52:28.901Z,1.60
2022-09-27T02:53:28.786Z,1.50
2022-09-27T02:54:28.422Z,1.60
2022-09-27T02:55:28.592Z,1.40
2022-09-27T02:56:28.448Z,1.50
2022-09-27T02:57:28.402Z,1.30
2022-09-27T02:58:28.345Z,1.70
2022-09-27T02:59:28.372Z,1.50
2022-09-27T03:00:28.314Z,2.00
2022-09-27T03:01:28.324Z,1.40
2022-09-27T03:02:28.430Z,1.40
2022-09-27T03:03:28.546Z,1.60
2022-09-27T03:04:28.439Z,1.70
2022-09-27T03:05:28.429Z,1.40
2022-09-27T03:06:28.515Z,1.90
2022-09-27T03:07:28.194Z,1.60
2022-09-27T03:08:28.504Z,1.70
2022-09-27T03:09:28.433Z,2.20
2022-09-27T03:10:28.202Z,1.60
2022-09-27T03:11:28.196Z,1.60
2022-09-27T03:12:28.175Z,1.60
2022-09-27T03:13:28.179Z,1.90
2022-09-27T03:14:28.124Z,2.10
2022-09-27T03:15:28.242Z,1.80
2022-09-27T03:16:28.259Z,1.80
2022-09-27T03:17:28.193Z,1.80
2022-09-27T03:18:28.109Z,1.70
2022-09-27T03:19:28.064Z,1.90
2022-09-27T03:20:28.085Z,1.80
2022-09-27T03:21:28.127Z,1.80
2022-09-27T03:22:28.279Z,1.60
2022-09-27T03:23:28.435Z,1.70
2022-09-27T03:24:28.325Z,1.70
2022-09-27T03:25:28.197Z,1.50
2022-09-27T03:26:28.107Z,1.60
2022-09-27T03:27:28.031Z,2.00
2022-09-27T03:28:27.981Z,1.80
2022-09-27T03:29:27.972Z,1.70
2022-09-27T03:30:28.068Z,1.90
2022-09-27T03:31:28.075Z,1.70
2022-09-27T03:32:28.489Z,2.10
2022-09-27T03:33:28.611Z,2.30
2022-09-27T03:34:28.714Z,1.80
2022-09-27T03:35:28.160Z,2.40
2022-09-27T03:36:28.286Z,2.00
2022-09-27T03:37:27.877Z,1.80
2022-09-27T03:38:28.014Z,1.50
2022-09-27T03:39:27.975Z,1.10
2022-09-27T03:40:27.948Z,1.40
2022-09-27T03:41:27.847Z,1.40
2022-09-27T03:42:27.897Z,1.50
2022-09-27T03:43:27.942Z,1.30
2022-09-27T03:44:27.824Z,1.20
2022-09-27T03:45:27.940Z,1.50
2022-09-27T03:46:27.955Z,1.60
2022-09-27T03:47:28.034Z,1.50
2022-09-27T03:48:28.395Z,1.50
2022-09-27T03:49:27.779Z,1.40
2022-09-27T03:50:27.979Z,1.80
2022-09-27T03:51:28.296Z,1.70
2022-09-27T03:52:28.308Z,1.90
2022-09-27T03:53:28.203Z,2.50
2022-09-27T03:54:29.033Z,2.20
2022-09-27T03:55:27.693Z,2.80
2022-09-27T03:56:28.025Z,3.20
2022-09-27T03:57:27.711Z,2.90
2022-09-27T03:58:27.914Z,2.90
2022-09-27T03:59:27.842Z,2.60
2022-09-27T04:00:28.652Z,2.70
2022-09-27T04:01:27.972Z,2.80
2022-09-27T04:02:27.827Z,2.40
2022-09-27T04:03:27.952Z,2.40
2022-09-27T04:04:27.807Z,1.50
2022-09-27T04:05:27.866Z,1.90
2022-09-27T04:06:27.595Z,1.80
2022-09-27T04:07:27.526Z,1.20
2022-09-27T04:08:27.527Z,1.10
2022-09-27T04:09:27.618Z,1.10
2022-09-27T04:10:27.527Z,1.00
2022-09-27T04:11:27.489Z,0.70
2022-09-27T04:12:27.493Z,0.90
2022-09-27T04:13:27.478Z,1.50
2022-09-27T04:14:27.449Z,1.70
2022-09-27T04:15:27.476Z,1.40
2022-09-27T04:16:27.498Z,1.50
2022-09-27T04:17:27.458Z,1.40
2022-09-27T04:18:27.401Z,1.40
2022-09-27T04:19:27.393Z,1.20
2022-09-27T04:20:27.381Z,1.30
2022-09-27T04:21:28.109Z,1.60
2022-09-27T04:22:27.361Z,1.60
2022-09-27T04:23:29.928Z,1.80
2022-09-27T04:24:27.357Z,1.40
2022-09-27T04:25:27.324Z,1.20
2022-09-27T04:26:27.331Z,1.40
2022-09-27T04:27:27.383Z,1.50
2022-09-27T04:28:27.335Z,1.30
2022-09-27T04:29:27.287Z,1.40
2022-09-27T04:30:27.353Z,1.40
2022-09-27T04:31:27.355Z,1.60
2022-09-27T04:32:27.681Z,1.40
2022-09-27T04:33:27.272Z,2.30
2022-09-27T04:34:27.222Z,2.00
2022-09-27T04:35:27.286Z,1.00
2022-09-27T04:36:27.218Z,0.90
2022-09-27T04:37:27.211Z,0.90
2022-09-27T04:38:27.184Z,0.60
2022-09-27T04:39:27.213Z,0.80
2022-09-27T04:40:27.247Z,0.90
2022-09-27T04:41:27.150Z,1.10
2022-09-27T04:42:28.712Z,1.10
2022-09-27T04:43:27.123Z,1.30
2022-09-27T04:44:27.121Z,1.10
2022-09-27T04:45:27.144Z,1.00
2022-09-27T04:46:27.222Z,1.40
2022-09-27T04:47:27.133Z,1.50
2022-09-27T04:48:27.983Z,1.10
2022-09-27T04:49:27.960Z,1.50
2022-09-27T04:50:27.047Z,1.60
2022-09-27T04:51:27.098Z,1.50
2022-09-27T04:52:27.026Z,1.60
2022-09-27T04:53:27.097Z,1.50
2022-09-27T04:54:27.054Z,1.60
2022-09-27T04:55:27.124Z,1.40
2022-09-27T04:56:27.423Z,1.20
2022-09-27T04:57:27.070Z,1.20
2022-09-27T04:58:27.011Z,1.40
2022-09-27T04:59:28.981Z,1.30
2022-09-27T05:00:26.951Z,1.10
2022-09-27T05:01:27.393Z,1.20
2022-09-27T05:02:27.449Z,1.40
2022-09-27T05:03:26.970Z,1.20
2022-09-27T05:04:26.916Z,1.20
2022-09-27T05:05:27.036Z,1.20
2022-09-27T05:06:27.172Z,1.30
2022-09-27T05:07:27.311Z,1.90
2022-09-27T05:08:26.941Z,2.40
2022-09-27T05:09:27.238Z,1.50
2022-09-27T05:10:28.714Z,1.80
2022-09-27T05:11:27.599Z,1.40
2022-09-27T05:12:26.902Z,1.20
2022-09-27T05:13:26.801Z,1.60
2022-09-27T05:15:26.815Z,2.00
2022-09-27T05:16:29.706Z,2.50
2022-09-27T05:17:27.141Z,2.50
2022-09-27T05:18:27.041Z,2.00
2022-09-27T05:19:26.763Z,1.70
2022-09-27T05:20:26.771Z,1.60
2022-09-27T05:21:26.784Z,1.80
2022-09-27T05:22:27.695Z,2.20
2022-09-27T05:23:26.680Z,2.10
2022-09-27T05:24:27.463Z,1.20
2022-09-27T05:25:26.679Z,1.50
2022-09-27T05:26:26.716Z,0.80
2022-09-27T05:27:26.733Z,1.90
2022-09-27T05:28:26.644Z,2.30
2022-09-27T05:29:33.504Z,2.40
2022-09-27T05:30:33.032Z,2.30
2022-09-27T05:31:32.914Z,2.00
2022-09-27T05:32:26.585Z,2.00
2022-09-27T05:33:26.615Z,1.20
2022-09-27T05:34:26.594Z,1.20
2022-09-27T05:35:26.556Z,1.80
2022-09-27T05:36:26.543Z,1.80
2022-09-27T05:37:26.743Z,1.40
2022-09-27T05:38:26.525Z,1.30
2022-09-27T05:39:26.567Z,1.20
2022-09-27T05:40:40.781Z,1.40
2022-09-27T05:41:26.691Z,1.40
2022-09-27T05:42:26.497Z,1.80
2022-09-27T05:43:27.674Z,1.30
2022-09-27T05:44:26.449Z,1.10
2022-09-27T05:45:26.482Z,1.00
2022-09-27T05:46:26.557Z,1.10
2022-09-27T05:47:26.411Z,1.20
2022-09-27T05:48:26.420Z,0.80
2022-09-27T05:49:26.429Z,1.20
2022-09-27T05:50:26.413Z,0.90
2022-09-27T05:51:26.418Z,1.10
2022-09-27T05:52:26.350Z,1.40
2022-09-27T05:53:26.359Z,1.80
2022-09-27T05:54:26.362Z,1.90
2022-09-27T05:55:26.321Z,2.10
2022-09-27T05:56:26.328Z,1.70
2022-09-27T05:57:27.138Z,1.80
2022-09-27T05:58:26.285Z,1.80
2022-09-27T05:59:26.268Z,2.10
2022-09-27T06:00:26.278Z,1.80
2022-09-27T06:01:27.049Z,1.70
2022-09-27T06:02:26.297Z,1.90
2022-09-27T06:03:26.257Z,2.30
2022-09-27T06:04:26.249Z,1.70
2022-09-27T06:05:26.272Z,1.70
2022-09-27T06:06:26.207Z,1.60
2022-09-27T06:07:26.439Z,1.10
2022-09-27T06:08:26.172Z,1.10
2022-09-27T06:09:26.189Z,1.10
2022-09-27T06:10:26.149Z,1.10
2022-09-27T06:11:26.147Z,1.20
2022-09-27T06:12:26.173Z,0.90
2022-09-27T06:13:26.139Z,0.90
2022-09-27T06:14:26.208Z,1.50
2022-09-27T06:15:26.139Z,1.30
2022-09-27T06:16:26.227Z,1.60
2022-09-27T06:17:26.150Z,1.30
2022-09-27T06:18:26.086Z,1.70
2022-09-27T06:19:26.054Z,1.80
2022-09-27T06:20:26.030Z,1.60
2022-09-27T06:21:26.065Z,2.00
2022-09-27T06:22:26.093Z,1.50
2022-09-27T06:23:26.176Z,1.30
2022-09-27T06:24:26.023Z,1.50
2022-09-27T06:25:25.999Z,1.50
2022-09-27T06:26:25.970Z,1.60
2022-09-27T06:27:26.025Z,1.50
2022-09-27T06:28:25.960Z,1.40
2022-09-27T06:29:26.081Z,1.70
2022-09-27T06:30:26.031Z,2.00
2022-09-27T06:31:25.979Z,1.70
2022-09-27T06:32:25.911Z,1.50
2022-09-27T06:33:26.048Z,1.60
2022-09-27T06:34:25.956Z,1.40
2022-09-27T06:35:25.879Z,1.30
2022-09-27T06:36:25.873Z,1.30
2022-09-27T06:37:25.906Z,1.20
2022-09-27T06:38:25.837Z,1.40
2022-09-27T06:39:26.698Z,1.50
2022-09-27T06:40:26.154Z,1.50
2022-09-27T06:41:25.871Z,1.90
2022-09-27T06:42:25.795Z,1.90
2022-09-27T06:43:26.118Z,1.70
2022-09-27T06:44:26.319Z,2.20
2022-09-27T06:45:26.158Z,1.80
2022-09-27T06:46:27.296Z,1.70
2022-09-27T06:47:26.010Z,1.50
2022-09-27T06:48:25.957Z,1.70
2022-09-27T06:49:26.197Z,1.50
2022-09-27T06:50:26.193Z,1.70
2022-09-27T06:51:26.839Z,1.70
2022-09-27T06:52:26.028Z,2.10
2022-09-27T06:53:26.073Z,1.30
2022-09-27T06:54:25.736Z,2.00
2022-09-27T06:55:25.645Z,1.70
2022-09-27T06:56:25.683Z,1.30
2022-09-27T06:57:25.721Z,1.70
2022-09-27T06:58:25.608Z,1.70
2022-09-27T06:59:25.599Z,1.10
2022-09-27T07:00:25.595Z,1.60
2022-09-27T07:01:25.615Z,1.70
2022-09-27T07:02:25.752Z,1.50
2022-09-27T07:03:28.479Z,1.90
2022-09-27T07:04:26.601Z,1.50
2022-09-27T07:05:25.734Z,1.70
2022-09-27T07:06:25.526Z,2.60
2022-09-27T07:07:25.569Z,1.50
2022-09-27T07:08:25.546Z,1.60
2022-09-27T07:09:25.550Z,1.80
2022-09-27T07:10:25.894Z,1.60
2022-09-27T07:11:25.530Z,1.40
2022-09-27T07:12:25.546Z,2.20
2022-09-27T07:13:25.590Z,1.60
2022-09-27T07:14:28.341Z,1.70
2022-09-27T07:15:25.719Z,1.40
2022-09-27T07:16:26.068Z,1.70
2022-09-27T07:17:25.519Z,1.60
2022-09-27T07:18:25.403Z,1.40
2022-09-27T07:19:26.102Z,1.70
2022-09-27T07:20:25.514Z,1.60
2022-09-27T07:21:25.450Z,1.10
2022-09-27T07:22:25.355Z,1.10
2022-09-27T07:23:25.427Z,0.80
2022-09-27T07:24:25.321Z,1.20
2022-09-27T07:25:25.331Z,1.20
2022-09-27T07:26:27.159Z,0.90
2022-09-27T07:27:25.324Z,1.90
2022-09-27T07:28:25.308Z,1.90
2022-09-27T07:29:25.263Z,2.20
2022-09-27T07:30:25.374Z,2.20
2022-09-27T07:31:25.258Z,3.30
2022-09-27T07:32:25.369Z,2.90
2022-09-27T07:33:25.296Z,3.90
2022-09-27T07:34:25.251Z,3.70
2022-09-27T07:35:25.252Z,3.30
2022-09-27T07:36:25.220Z,2.70
2022-09-27T07:37:25.190Z,2.20
2022-09-27T07:38:25.230Z,1.70
2022-09-27T07:39:27.094Z,1.70
2022-09-27T07:40:25.418Z,1.80
2022-09-27T07:41:25.212Z,1.70
2022-09-27T07:42:26.339Z,1.70
2022-09-27T07:43:25.135Z,1.30
2022-09-27T07:44:25.151Z,1.80
2022-09-27T07:45:25.323Z,1.60
2022-09-27T07:46:26.284Z,1.60
2022-09-27T07:47:25.063Z,1.80
2022-09-27T07:48:25.274Z,2.20
2022-09-27T07:49:25.062Z,1.50
2022-09-27T07:50:25.123Z,1.60
2022-09-27T07:51:25.386Z,1.40
2022-09-27T07:52:25.067Z,2.00
2022-09-27T07:53:26.421Z,2.20
2022-09-27T07:54:25.090Z,2.10
2022-09-27T07:55:25.200Z,1.40
2022-09-27T07:56:25.154Z,1.90
2022-09-27T07:57:25.302Z,2.10
2022-09-27T07:58:25.069Z,1.80
2022-09-27T07:59:25.315Z,1.30
2022-09-27T08:00:25.019Z,1.50
2022-09-27T08:01:25.226Z,2.10
2022-09-27T08:02:26.053Z,2.20
2022-09-27T08:03:25.365Z,1.80
2022-09-27T08:04:24.951Z,1.70
2022-09-27T08:05:25.274Z,1.70
2022-09-27T08:06:25.257Z,1.30
2022-09-27T08:07:25.082Z,1.40
2022-09-27T08:08:25.280Z,1.40
2022-09-27T08:09:25.097Z,1.80
2022-09-27T08:10:24.959Z,1.70
2022-09-27T08:11:25.237Z,1.60
2022-09-27T08:12:24.919Z,1.60
2022-09-27T08:13:25.151Z,2.00
2022-09-27T08:14:25.269Z,2.10
2022-09-27T08:15:24.976Z,2.00
2022-09-27T08:16:24.998Z,2.40
2022-09-27T08:17:24.734Z,2.50
2022-09-27T08:18:24.949Z,2.50
2022-09-27T08:19:24.954Z,2.70
2022-09-27T08:20:25.874Z,2.50
2022-09-27T08:21:25.078Z,2.50
2022-09-27T08:22:24.976Z,1.80
2022-09-27T08:23:24.755Z,2.10
2022-09-27T08:24:24.714Z,2.20
2022-09-27T08:25:24.699Z,2.60
2022-09-27T08:26:25.836Z,2.30
2022-09-27T08:27:24.747Z,2.60
2022-09-27T08:28:24.988Z,2.20
2022-09-27T08:29:24.764Z,1.30
2022-09-27T08:30:24.873Z,1.40
2022-09-27T08:31:24.855Z,1.70
2022-09-27T08:32:24.726Z,2.00
2022-09-27T08:33:28.639Z,1.80
2022-09-27T08:34:24.717Z,1.50
2022-09-27T08:35:25.209Z,1.70
2022-09-27T08:36:25.186Z,1.50
2022-09-27T08:37:24.579Z,1.90
2022-09-27T08:38:24.601Z,1.90
2022-09-27T08:39:24.578Z,2.20
2022-09-27T08:40:24.770Z,1.90
2022-09-27T08:41:24.462Z,1.60
2022-09-27T08:42:24.446Z,1.80
2022-09-27T08:43:24.527Z,1.60
2022-09-27T08:44:25.055Z,1.70
2022-09-27T08:45:25.066Z,1.90
2022-09-27T08:46:24.455Z,2.20
2022-09-27T08:47:24.404Z,2.00
2022-09-27T08:48:24.415Z,2.00
2022-09-27T08:49:24.372Z,2.10
2022-09-27T08:50:24.549Z,2.40
2022-09-27T08:51:24.432Z,2.70
2022-09-27T08:52:24.347Z,2.10
2022-09-27T08:53:24.333Z,1.60
2022-09-27T08:54:24.346Z,0.90
2022-09-27T08:55:24.354Z,1.20
2022-09-27T08:56:24.350Z,0.80
2022-09-27T08:57:24.450Z,1.00
2022-09-27T08:58:24.288Z,1.30
2022-09-27T08:59:24.377Z,1.60
2022-09-27T09:00:24.315Z,2.10
2022-09-27T09:01:31.283Z,2.80
2022-09-27T09:02:25.180Z,2.00
2022-09-27T09:03:24.997Z,2.10
2022-09-27T09:04:24.217Z,2.90
2022-09-27T09:05:24.187Z,2.10
2022-09-27T09:06:24.257Z,2.80
2022-09-27T09:07:24.213Z,2.70
2022-09-27T09:08:26.514Z,2.10
2022-09-27T09:09:24.440Z,1.80
2022-09-27T09:10:24.168Z,1.30
2022-09-27T09:11:24.416Z,1.80
2022-09-27T09:12:25.203Z,1.70
2022-09-27T09:13:24.146Z,2.20
2022-09-27T09:14:24.138Z,1.60
2022-09-27T09:15:24.195Z,2.10
2022-09-27T09:16:24.163Z,2.90
2022-09-27T09:17:24.211Z,2.80
2022-09-27T09:18:24.152Z,2.30
2022-09-27T09:19:24.970Z,2.20
2022-09-27T09:20:24.060Z,1.50
2022-09-27T09:21:24.423Z,1.50
2022-09-27T09:22:25.112Z,2.20
2022-09-27T09:23:24.551Z,1.40
2022-09-27T09:24:24.056Z,1.70
2022-09-27T09:25:23.997Z,1.70
2022-09-27T09:26:23.962Z,1.70
2022-09-27T09:27:23.981Z,2.00
2022-09-27T09:28:23.945Z,1.70
2022-09-27T09:29:23.984Z,1.40
2022-09-27T09:30:23.968Z,2.00
2022-09-27T09:31:24.547Z,2.10
2022-09-27T09:32:23.954Z,2.50
2022-09-27T09:33:24.047Z,2.00
2022-09-27T09:34:24.078Z,1.30
2022-09-27T09:35:24.052Z,1.70
2022-09-27T09:36:25.834Z,1.90
2022-09-27T09:37:24.919Z,1.70
2022-09-27T09:38:24.215Z,2.20
2022-09-27T09:39:23.927Z,1.60
2022-09-27T09:40:25.412Z,1.60
2022-09-27T09:41:25.931Z,1.80
2022-09-27T09:42:26.025Z,1.60
2022-09-27T09:43:23.988Z,2.20
2022-09-27T09:44:24.204Z,2.00
2022-09-27T09:45:23.935Z,2.70
2022-09-27T09:46:23.723Z,1.50
2022-09-27T09:47:23.898Z,0.80
2022-09-27T09:48:25.782Z,1.10
2022-09-27T09:49:24.139Z,1.30
2022-09-27T09:50:23.773Z,1.70
2022-09-27T09:51:23.914Z,1.50
2022-09-27T09:52:23.907Z,1.50
2022-09-27T09:53:23.694Z,1.60
2022-09-27T09:54:23.990Z,2.20
2022-09-27T09:55:23.659Z,1.90
2022-09-27T09:56:23.613Z,1.80
2022-09-27T09:57:23.879Z,1.90
2022-09-27T09:58:23.608Z,2.00
2022-09-27T09:59:23.601Z,1.80
2022-09-27T10:00:23.628Z,2.30
2022-09-27T10:01:23.747Z,2.30
2022-09-27T10:02:24.114Z,2.90
2022-09-27T10:03:23.614Z,2.20
2022-09-27T10:04:23.567Z,1.80
2022-09-27T10:05:23.512Z,1.70
2022-09-27T10:06:23.522Z,1.90
2022-09-27T10:07:23.511Z,2.60
2022-09-27T10:08:23.549Z,1.90
2022-09-27T10:09:23.720Z,1.90
2022-09-27T10:10:23.509Z,2.60
2022-09-27T10:11:24.563Z,2.20
2022-09-27T10:12:23.551Z,2.60
2022-09-27T10:13:23.670Z,3.00
2022-09-27T10:14:23.459Z,2.90
2022-09-27T10:15:26.016Z,2.50
2022-09-27T10:16:23.573Z,2.80
2022-09-27T10:17:25.612Z,2.10
2022-09-27T10:18:23.456Z,2.00
2022-09-27T10:19:23.592Z,2.60
2022-09-27T10:20:23.376Z,2.30
2022-09-27T10:21:23.373Z,1.80
2022-09-27T10:22:23.367Z,1.50
2022-09-27T10:23:23.334Z,2.10
2022-09-27T10:24:23.737Z,2.10
2022-09-27T10:25:23.417Z,1.60
2022-09-27T10:26:23.595Z,1.70
2022-09-27T10:27:23.717Z,1.70
2022-09-27T10:28:23.262Z,1.70
2022-09-27T10:29:23.463Z,1.40
2022-09-27T10:30:23.267Z,1.80
2022-09-27T10:31:23.308Z,1.50
2022-09-27T10:32:23.290Z,1.60
2022-09-27T10:33:23.283Z,1.80
2022-09-27T10:34:23.389Z,2.00
2022-09-27T10:35:24.069Z,2.20
2022-09-27T10:36:25.304Z,2.00
2022-09-27T10:37:23.221Z,2.00
2022-09-27T10:38:23.205Z,1.00
2022-09-27T10:39:23.300Z,1.10
2022-09-27T10:40:23.279Z,1.20
2022-09-27T10:41:23.444Z,1.70
2022-09-27T10:42:23.260Z,1.40
2022-09-27T10:43:26.300Z,0.90
2022-09-27T10:44:23.098Z,1.40
2022-09-27T10:45:23.445Z,1.80
2022-09-27T10:46:23.132Z,1.50
2022-09-27T10:47:23.791Z,2.40
2022-09-27T10:48:23.055Z,1.70
2022-09-27T10:49:23.321Z,1.80
2022-09-27T10:50:45.919Z,1.60
2022-09-27T10:51:23.094Z,1.60
2022-09-27T10:52:23.219Z,1.30
2022-09-27T10:53:23.098Z,1.60
2022-09-27T10:54:23.021Z,1.60
2022-09-27T10:55:23.239Z,1.60
2022-09-27T10:56:23.464Z,1.50
2022-09-27T10:57:23.009Z,1.30
2022-09-27T10:58:22.955Z,1.60
2022-09-27T10:59:23.270Z,2.00
2022-09-27T11:00:22.933Z,1.70
2022-09-27T11:01:22.953Z,1.40
2022-09-27T11:02:22.905Z,1.30
2022-09-27T11:03:22.946Z,2.10
2022-09-27T11:04:22.898Z,1.80
2022-09-27T11:05:22.920Z,2.00
2022-09-27T11:06:22.829Z,1.60
2022-09-27T11:07:22.828Z,1.60
2022-09-27T11:08:22.803Z,1.40
2022-09-27T11:09:22.931Z,1.60
2022-09-27T11:10:22.900Z,1.40
2022-09-27T11:11:22.858Z,1.50
2022-09-27T11:12:23.118Z,1.70
2022-09-27T11:13:22.776Z,1.80
2022-09-27T11:14:22.779Z,1.90
2022-09-27T11:15:22.791Z,1.80
2022-09-27T11:16:22.819Z,1.80
2022-09-27T11:17:22.723Z,2.40
2022-09-27T11:18:22.685Z,2.20
2022-09-27T11:19:22.718Z,2.20
2022-09-27T11:20:22.729Z,2.40
2022-09-27T11:21:22.787Z,2.10
2022-09-27T11:22:22.764Z,1.90
2022-09-27T11:23:22.742Z,2.90
2022-09-27T11:24:23.092Z,3.10
2022-09-27T11:25:26.298Z,2.40
2022-09-27T11:26:22.873Z,2.60
2022-09-27T11:27:23.737Z,2.20
2022-09-27T11:28:22.807Z,2.60
2022-09-27T11:29:24.569Z,2.20
2022-09-27T11:30:24.604Z,1.80
2022-09-27T11:31:24.380Z,2.20
2022-09-27T11:32:23.703Z,2.30
2022-09-27T11:33:27.230Z,2.00
2022-09-27T11:34:29.756Z,1.80
2022-09-27T11:35:22.588Z,1.10
2022-09-27T11:36:27.287Z,1.10
2022-09-27T11:37:23.947Z,1.20
2022-09-27T11:38:47.887Z,1.30
2022-09-27T11:39:25.171Z,1.10
2022-09-27T11:40:22.675Z,1.20
2022-09-27T11:41:23.730Z,1.10
2022-09-27T11:42:26.240Z,1.30
2022-09-27T11:43:24.319Z,1.20
2022-09-27T11:44:25.255Z,0.90
2022-09-27T11:45:45.324Z,1.10
2022-09-27T11:46:29.930Z,1.30
2022-09-27T11:47:22.609Z,1.20
2022-09-27T11:48:22.819Z,1.20
2022-09-27T11:49:22.762Z,0.80
2022-09-27T11:50:23.306Z,0.90
2022-09-27T11:51:23.021Z,0.90
2022-09-27T11:52:22.475Z,0.90
2022-09-27T11:53:22.471Z,0.90
2022-09-27T11:54:22.500Z,0.90
2022-09-27T11:55:22.415Z,0.80
2022-09-27T11:56:22.475Z,0.80
2022-09-27T11:57:22.482Z,0.80
2022-09-27T11:58:22.329Z,0.80
2022-09-27T11:59:24.731Z,1.00
2022-09-27T12:00:22.475Z,1.20
2022-09-27T12:01:22.250Z,1.00
2022-09-27T12:02:22.339Z,1.00
2022-09-27T12:03:22.243Z,0.70
2022-09-27T12:04:22.267Z,0.90
2022-09-27T12:05:22.529Z,1.00
2022-09-27T12:06:22.167Z,0.60
2022-09-27T12:07:22.157Z,0.80
2022-09-27T12:08:22.130Z,0.90
2022-09-27T12:09:23.063Z,0.80
2022-09-27T12:10:22.132Z,1.30
2022-09-27T12:11:22.166Z,1.10
2022-09-27T12:12:22.384Z,1.30
2022-09-27T12:13:22.287Z,1.00
2022-09-27T12:14:26.534Z,0.70
2022-09-27T12:15:22.165Z,0.90
2022-09-27T12:16:22.383Z,0.80
2022-09-27T12:17:22.154Z,0.80
2022-09-27T12:18:22.247Z,0.80
2022-09-27T12:19:22.942Z,0.60
2022-09-27T12:20:22.011Z,0.80
2022-09-27T12:21:22.317Z,1.20
2022-09-27T12:22:40.208Z,0.60
2022-09-27T12:23:22.010Z,0.70
2022-09-27T12:24:23.125Z,0.90
2022-09-27T12:25:21.962Z,1.00
2022-09-27T12:26:22.137Z,1.00
2022-09-27T12:27:22.114Z,1.10
2022-09-27T12:28:27.318Z,0.70
2022-09-27T12:30:32.372Z,1.00
2022-09-27T12:31:33.828Z,0.90
2022-09-27T12:32:33.463Z,0.60
2022-09-27T12:33:33.325Z,0.90
2022-09-27T12:34:33.385Z,0.70
2022-09-27T12:35:33.298Z,1.00
2022-09-27T12:36:38.016Z,0.70
2022-09-27T12:37:33.345Z,0.70
2022-09-27T12:38:33.785Z,0.80
2022-09-27T12:39:33.534Z,0.50
2022-09-27T12:40:33.295Z,0.60
2022-09-27T12:41:33.251Z,0.60
2022-09-27T12:42:33.263Z,0.40
2022-09-27T12:43:33.375Z,0.60
2022-09-27T12:44:33.643Z,0.40
2022-09-27T12:45:33.497Z,0.60
2022-09-27T12:46:33.207Z,0.70
2022-09-27T12:47:33.453Z,0.40
2022-09-27T12:48:33.196Z,0.70
2022-09-27T12:49:33.293Z,0.50
2022-09-27T12:50:33.247Z,0.60
2022-09-27T12:51:33.267Z,0.30
2022-09-27T12:52:33.161Z,0.40
2022-09-27T12:53:33.264Z,0.30
2022-09-27T12:54:33.149Z,0.30
2022-09-27T12:55:33.068Z,0.60
2022-09-27T12:56:33.131Z,0.70
2022-09-27T12:57:33.125Z,0.50
2022-09-27T12:58:33.046Z,0.60
2022-09-27T12:59:33.045Z,0.70
2022-09-27T13:00:33.500Z,0.50
2022-09-27T13:01:33.190Z,0.50
2022-09-27T13:02:34.321Z,0.40
2022-09-27T13:03:33.247Z,0.30
2022-09-27T13:04:33.389Z,0.40
2022-09-27T13:05:33.221Z,0.50
2022-09-27T13:06:33.343Z,0.60
2022-09-27T13:07:33.339Z,0.40
2022-09-27T13:08:33.007Z,0.50
2022-09-27T13:09:33.059Z,0.40
2022-09-27T13:10:32.916Z,0.40
2022-09-27T13:11:33.427Z,0.70
2022-09-27T13:12:32.979Z,0.50
2022-09-27T13:13:36.551Z,0.60
2022-09-27T13:14:33.574Z,0.50
2022-09-27T13:15:32.885Z,0.60
2022-09-27T13:16:33.047Z,0.70
2022-09-27T13:17:32.833Z,0.80
2022-09-27T13:18:32.819Z,0.70
2022-09-27T13:19:33.008Z,1.00
2022-09-27T13:20:32.964Z,0.90